sensor_id;sensor_type;location;lat;lon;timestamp;P1;durP1;ratioP1;P2;durP2;ratioP2
58354;SDS011;44160;49.080;19.302;2023-09-30T00:01:08;10.95;;;7.88;;
58354;SDS011;44160;49.080;19.302;2023-09-30T00:03:35;11.57;;;7.93;;
58354;SDS011;44160;49.080;19.302;2023-09-30T00:06:01;10.90;;;7.47;;
58354;SDS011;44160;49.080;19.302;2023-09-30T00:08:29;12.40;;;7.80;;
58354;SDS011;44160;49.080;19.302;2023-09-30T00:10:55;14.70;;;7.85;;
58354;SDS011;44160;49.080;19.302;2023-09-30T00:13:21;9.55;;;8.15;;
58354;SDS011;44160;49.080;19.302;2023-09-30T00:15:47;10.85;;;8.13;;
58354;SDS011;44160;49.080;19.302;2023-09-30T00:18:13;13.70;;;8.75;;
58354;SDS011;44160;49.080;19.302;2023-09-30T00:20:39;15.00;;;8.80;;
58354;SDS011;44160;49.080;19.302;2023-09-30T00:23:05;16.90;;;9.05;;
58354;SDS011;44160;49.080;19.302;2023-09-30T00:25:32;10.82;;;8.77;;
58354;SDS011;44160;49.080;19.302;2023-09-30T00:27:58;14.95;;;8.30;;
58354;SDS011;44160;49.080;19.302;2023-09-30T00:30:24;15.80;;;9.13;;
58354;SDS011;44160;49.080;19.302;2023-09-30T00:32:50;10.15;;;8.27;;
58354;SDS011;44160;49.080;19.302;2023-09-30T00:35:16;11.23;;;8.75;;
58354;SDS011;44160;49.080;19.302;2023-09-30T00:37:42;12.13;;;8.60;;
58354;SDS011;44160;49.080;19.302;2023-09-30T00:40:08;14.80;;;9.07;;
58354;SDS011;44160;49.080;19.302;2023-09-30T00:42:37;13.30;;;8.65;;
58354;SDS011;44160;49.080;19.302;2023-09-30T00:45:03;14.15;;;8.25;;
58354;SDS011;44160;49.080;19.302;2023-09-30T00:47:30;17.10;;;8.80;;
58354;SDS011;44160;49.080;19.302;2023-09-30T00:49:56;14.50;;;7.72;;
58354;SDS011;44160;49.080;19.302;2023-09-30T00:52:22;10.60;;;8.55;;
58354;SDS011;44160;49.080;19.302;2023-09-30T00:54:50;19.38;;;9.38;;
58354;SDS011;44160;49.080;19.302;2023-09-30T00:57:17;13.63;;;9.18;;
58354;SDS011;44160;49.080;19.302;2023-09-30T00:59:45;13.70;;;8.75;;
58354;SDS011;44160;49.080;19.302;2023-09-30T01:02:11;10.80;;;8.68;;
58354;SDS011;44160;49.080;19.302;2023-09-30T01:04:37;13.13;;;9.65;;
58354;SDS011;44160;49.080;19.302;2023-09-30T01:07:03;13.13;;;8.48;;
58354;SDS011;44160;49.080;19.302;2023-09-30T01:09:30;12.23;;;8.18;;
58354;SDS011;44160;49.080;19.302;2023-09-30T01:11:56;17.35;;;9.32;;
58354;SDS011;44160;49.080;19.302;2023-09-30T01:16:51;10.35;;;8.13;;
58354;SDS011;44160;49.080;19.302;2023-09-30T01:19:17;14.02;;;7.43;;
58354;SDS011;44160;49.080;19.302;2023-09-30T01:21:43;14.52;;;8.38;;
58354;SDS011;44160;49.080;19.302;2023-09-30T01:24:16;13.98;;;8.60;;
58354;SDS011;44160;49.080;19.302;2023-09-30T01:26:42;16.55;;;9.35;;
58354;SDS011;44160;49.080;19.302;2023-09-30T01:29:08;13.10;;;8.85;;
58354;SDS011;44160;49.080;19.302;2023-09-30T01:31:38;17.35;;;9.77;;
58354;SDS011;44160;49.080;19.302;2023-09-30T01:34:04;13.90;;;8.63;;
58354;SDS011;44160;49.080;19.302;2023-09-30T01:36:31;12.95;;;10.13;;
58354;SDS011;44160;49.080;19.302;2023-09-30T01:38:57;12.98;;;9.35;;
58354;SDS011;44160;49.080;19.302;2023-09-30T01:41:23;13.60;;;8.27;;
58354;SDS011;44160;49.080;19.302;2023-09-30T01:43:49;15.75;;;9.85;;
58354;SDS011;44160;49.080;19.302;2023-09-30T01:46:15;14.68;;;9.23;;
58354;SDS011;44160;49.080;19.302;2023-09-30T01:48:41;11.82;;;8.40;;
58354;SDS011;44160;49.080;19.302;2023-09-30T01:51:08;12.07;;;8.27;;
58354;SDS011;44160;49.080;19.302;2023-09-30T01:53:34;15.23;;;9.65;;
58354;SDS011;44160;49.080;19.302;2023-09-30T01:56:00;14.88;;;8.93;;
58354;SDS011;44160;49.080;19.302;2023-09-30T01:58:27;17.13;;;8.27;;
58354;SDS011;44160;49.080;19.302;2023-09-30T02:00:53;10.30;;;8.32;;
58354;SDS011;44160;49.080;19.302;2023-09-30T02:03:19;10.20;;;7.75;;
58354;SDS011;44160;49.080;19.302;2023-09-30T02:05:45;15.75;;;9.13;;
58354;SDS011;44160;49.080;19.302;2023-09-30T02:08:11;22.92;;;9.15;;
58354;SDS011;44160;49.080;19.302;2023-09-30T02:10:38;13.85;;;8.05;;
58354;SDS011;44160;49.080;19.302;2023-09-30T02:13:05;13.80;;;8.40;;
58354;SDS011;44160;49.080;19.302;2023-09-30T02:15:32;11.05;;;8.00;;
58354;SDS011;44160;49.080;19.302;2023-09-30T02:17:58;10.48;;;7.75;;
58354;SDS011;44160;49.080;19.302;2023-09-30T02:20:25;10.73;;;7.78;;
58354;SDS011;44160;49.080;19.302;2023-09-30T02:22:55;9.52;;;7.18;;
58354;SDS011;44160;49.080;19.302;2023-09-30T02:25:21;9.85;;;7.40;;
58354;SDS011;44160;49.080;19.302;2023-09-30T02:27:47;10.23;;;7.00;;
58354;SDS011;44160;49.080;19.302;2023-09-30T02:30:14;14.65;;;7.82;;
58354;SDS011;44160;49.080;19.302;2023-09-30T02:32:41;15.38;;;7.32;;
58354;SDS011;44160;49.080;19.302;2023-09-30T02:35:08;13.10;;;7.07;;
58354;SDS011;44160;49.080;19.302;2023-09-30T02:37:39;11.07;;;8.38;;
58354;SDS011;44160;49.080;19.302;2023-09-30T02:40:05;12.65;;;9.05;;
58354;SDS011;44160;49.080;19.302;2023-09-30T02:42:38;17.33;;;12.70;;
58354;SDS011;44160;49.080;19.302;2023-09-30T02:45:05;20.80;;;16.67;;
58354;SDS011;44160;49.080;19.302;2023-09-30T02:47:33;12.07;;;10.65;;
58354;SDS011;44160;49.080;19.302;2023-09-30T02:49:59;14.43;;;9.57;;
58354;SDS011;44160;49.080;19.302;2023-09-30T02:52:26;14.88;;;8.70;;
58354;SDS011;44160;49.080;19.302;2023-09-30T02:54:53;12.05;;;9.10;;
58354;SDS011;44160;49.080;19.302;2023-09-30T02:57:19;12.43;;;7.72;;
58354;SDS011;44160;49.080;19.302;2023-09-30T02:59:46;10.82;;;6.70;;
58354;SDS011;44160;49.080;19.302;2023-09-30T03:02:12;8.60;;;7.40;;
58354;SDS011;44160;49.080;19.302;2023-09-30T03:04:38;8.85;;;6.93;;
58354;SDS011;44160;49.080;19.302;2023-09-30T03:07:04;11.77;;;7.38;;
58354;SDS011;44160;49.080;19.302;2023-09-30T03:09:30;10.85;;;7.20;;
58354;SDS011;44160;49.080;19.302;2023-09-30T03:11:56;11.48;;;6.70;;
58354;SDS011;44160;49.080;19.302;2023-09-30T03:14:24;11.45;;;7.20;;
58354;SDS011;44160;49.080;19.302;2023-09-30T03:16:50;12.07;;;7.63;;
58354;SDS011;44160;49.080;19.302;2023-09-30T03:19:17;10.43;;;7.70;;
58354;SDS011;44160;49.080;19.302;2023-09-30T03:21:43;10.93;;;8.40;;
58354;SDS011;44160;49.080;19.302;2023-09-30T03:24:09;15.27;;;10.10;;
58354;SDS011;44160;49.080;19.302;2023-09-30T03:26:36;19.65;;;11.30;;
58354;SDS011;44160;49.080;19.302;2023-09-30T03:29:05;12.80;;;10.07;;
58354;SDS011;44160;49.080;19.302;2023-09-30T03:31:31;19.60;;;12.65;;
58354;SDS011;44160;49.080;19.302;2023-09-30T03:33:57;18.73;;;12.77;;
58354;SDS011;44160;49.080;19.302;2023-09-30T03:36:25;13.65;;;10.80;;
58354;SDS011;44160;49.080;19.302;2023-09-30T03:38:51;12.70;;;9.40;;
58354;SDS011;44160;49.080;19.302;2023-09-30T03:41:24;13.75;;;8.55;;
58354;SDS011;44160;49.080;19.302;2023-09-30T03:43:50;16.58;;;8.77;;
58354;SDS011;44160;49.080;19.302;2023-09-30T03:46:16;11.55;;;7.82;;
58354;SDS011;44160;49.080;19.302;2023-09-30T03:48:42;9.02;;;7.03;;
58354;SDS011;44160;49.080;19.302;2023-09-30T03:53:39;10.75;;;7.10;;
58354;SDS011;44160;49.080;19.302;2023-09-30T03:56:05;9.57;;;6.30;;
58354;SDS011;44160;49.080;19.302;2023-09-30T03:58:31;10.48;;;7.40;;
58354;SDS011;44160;49.080;19.302;2023-09-30T04:00:57;8.65;;;6.68;;
58354;SDS011;44160;49.080;19.302;2023-09-30T04:03:23;11.13;;;7.22;;
58354;SDS011;44160;49.080;19.302;2023-09-30T04:05:49;12.02;;;7.35;;
58354;SDS011;44160;49.080;19.302;2023-09-30T04:08:16;14.70;;;8.93;;
58354;SDS011;44160;49.080;19.302;2023-09-30T04:10:42;13.57;;;9.05;;
58354;SDS011;44160;49.080;19.302;2023-09-30T04:13:09;13.73;;;10.27;;
58354;SDS011;44160;49.080;19.302;2023-09-30T04:15:36;15.38;;;11.35;;
58354;SDS011;44160;49.080;19.302;2023-09-30T04:18:02;13.20;;;9.82;;
58354;SDS011;44160;49.080;19.302;2023-09-30T04:20:30;13.27;;;9.38;;
58354;SDS011;44160;49.080;19.302;2023-09-30T04:22:56;14.35;;;8.95;;
58354;SDS011;44160;49.080;19.302;2023-09-30T04:25:23;14.65;;;10.38;;
58354;SDS011;44160;49.080;19.302;2023-09-30T04:27:52;9.80;;;7.97;;
58354;SDS011;44160;49.080;19.302;2023-09-30T04:30:18;14.05;;;8.00;;
58354;SDS011;44160;49.080;19.302;2023-09-30T04:32:47;9.85;;;7.20;;
58354;SDS011;44160;49.080;19.302;2023-09-30T04:35:13;14.05;;;7.43;;
58354;SDS011;44160;49.080;19.302;2023-09-30T04:37:40;11.65;;;7.85;;
58354;SDS011;44160;49.080;19.302;2023-09-30T04:40:07;9.90;;;8.02;;
58354;SDS011;44160;49.080;19.302;2023-09-30T04:42:41;15.40;;;9.68;;
58354;SDS011;44160;49.080;19.302;2023-09-30T04:45:09;13.50;;;7.60;;
58354;SDS011;44160;49.080;19.302;2023-09-30T04:47:35;15.80;;;8.98;;
58354;SDS011;44160;49.080;19.302;2023-09-30T04:50:03;12.82;;;9.43;;
58354;SDS011;44160;49.080;19.302;2023-09-30T04:52:32;10.73;;;8.30;;
58354;SDS011;44160;49.080;19.302;2023-09-30T04:54:58;13.60;;;10.32;;
58354;SDS011;44160;49.080;19.302;2023-09-30T04:57:25;16.77;;;11.43;;
58354;SDS011;44160;49.080;19.302;2023-09-30T04:59:51;15.15;;;10.73;;
58354;SDS011;44160;49.080;19.302;2023-09-30T05:02:17;14.48;;;9.60;;
58354;SDS011;44160;49.080;19.302;2023-09-30T05:04:43;15.73;;;9.93;;
58354;SDS011;44160;49.080;19.302;2023-09-30T05:07:09;13.63;;;10.05;;
58354;SDS011;44160;49.080;19.302;2023-09-30T05:09:38;16.25;;;10.73;;
58354;SDS011;44160;49.080;19.302;2023-09-30T05:12:04;13.15;;;8.70;;
58354;SDS011;44160;49.080;19.302;2023-09-30T05:14:31;15.27;;;7.43;;
58354;SDS011;44160;49.080;19.302;2023-09-30T05:16:58;10.63;;;6.75;;
58354;SDS011;44160;49.080;19.302;2023-09-30T05:19:24;10.32;;;7.60;;
58354;SDS011;44160;49.080;19.302;2023-09-30T05:21:51;9.20;;;6.63;;
58354;SDS011;44160;49.080;19.302;2023-09-30T05:24:17;11.32;;;7.13;;
58354;SDS011;44160;49.080;19.302;2023-09-30T05:26:44;11.50;;;7.30;;
58354;SDS011;44160;49.080;19.302;2023-09-30T05:29:11;12.25;;;7.03;;
58354;SDS011;44160;49.080;19.302;2023-09-30T05:31:39;11.48;;;7.07;;
58354;SDS011;44160;49.080;19.302;2023-09-30T05:34:05;19.55;;;9.90;;
58354;SDS011;44160;49.080;19.302;2023-09-30T05:36:31;12.30;;;7.20;;
58354;SDS011;44160;49.080;19.302;2023-09-30T05:38:58;10.02;;;7.40;;
58354;SDS011;44160;49.080;19.302;2023-09-30T05:41:25;15.00;;;8.50;;
58354;SDS011;44160;49.080;19.302;2023-09-30T05:43:52;12.13;;;8.48;;
58354;SDS011;44160;49.080;19.302;2023-09-30T05:46:20;12.48;;;9.27;;
58354;SDS011;44160;49.080;19.302;2023-09-30T05:48:48;16.30;;;10.73;;
58354;SDS011;44160;49.080;19.302;2023-09-30T05:51:18;18.63;;;12.13;;
58354;SDS011;44160;49.080;19.302;2023-09-30T05:53:44;15.15;;;11.50;;
58354;SDS011;44160;49.080;19.302;2023-09-30T05:56:13;17.02;;;10.73;;
58354;SDS011;44160;49.080;19.302;2023-09-30T05:58:40;16.45;;;11.15;;
58354;SDS011;44160;49.080;19.302;2023-09-30T06:01:09;14.43;;;10.35;;
58354;SDS011;44160;49.080;19.302;2023-09-30T06:03:36;16.45;;;10.85;;
58354;SDS011;44160;49.080;19.302;2023-09-30T06:06:14;16.35;;;10.35;;
58354;SDS011;44160;49.080;19.302;2023-09-30T06:08:42;13.75;;;9.15;;
58354;SDS011;44160;49.080;19.302;2023-09-30T06:11:18;14.13;;;9.95;;
58354;SDS011;44160;49.080;19.302;2023-09-30T06:13:44;12.13;;;8.13;;
58354;SDS011;44160;49.080;19.302;2023-09-30T06:16:11;14.43;;;8.80;;
58354;SDS011;44160;49.080;19.302;2023-09-30T06:18:37;15.82;;;8.65;;
58354;SDS011;44160;49.080;19.302;2023-09-30T06:21:03;11.07;;;8.48;;
58354;SDS011;44160;49.080;19.302;2023-09-30T06:23:30;8.32;;;7.30;;
58354;SDS011;44160;49.080;19.302;2023-09-30T06:25:56;10.90;;;8.10;;
58354;SDS011;44160;49.080;19.302;2023-09-30T06:28:22;10.45;;;7.47;;
58354;SDS011;44160;49.080;19.302;2023-09-30T06:30:54;12.02;;;8.85;;
58354;SDS011;44160;49.080;19.302;2023-09-30T06:33:20;10.05;;;7.70;;
58354;SDS011;44160;49.080;19.302;2023-09-30T06:35:46;10.20;;;7.88;;
58354;SDS011;44160;49.080;19.302;2023-09-30T06:38:21;13.75;;;8.77;;
58354;SDS011;44160;49.080;19.302;2023-09-30T06:40:47;12.75;;;9.20;;
58354;SDS011;44160;49.080;19.302;2023-09-30T06:43:14;14.60;;;10.30;;
58354;SDS011;44160;49.080;19.302;2023-09-30T06:45:43;18.15;;;10.07;;
58354;SDS011;44160;49.080;19.302;2023-09-30T06:48:10;18.33;;;10.63;;
58354;SDS011;44160;49.080;19.302;2023-09-30T06:50:43;14.55;;;10.30;;
58354;SDS011;44160;49.080;19.302;2023-09-30T06:53:10;14.27;;;10.18;;
58354;SDS011;44160;49.080;19.302;2023-09-30T06:55:42;14.30;;;9.07;;
58354;SDS011;44160;49.080;19.302;2023-09-30T06:58:08;17.95;;;8.80;;
58354;SDS011;44160;49.080;19.302;2023-09-30T07:00:37;14.35;;;9.63;;
58354;SDS011;44160;49.080;19.302;2023-09-30T07:03:04;14.82;;;10.23;;
58354;SDS011;44160;49.080;19.302;2023-09-30T07:05:30;16.83;;;9.95;;
58354;SDS011;44160;49.080;19.302;2023-09-30T07:07:56;13.20;;;10.75;;
58354;SDS011;44160;49.080;19.302;2023-09-30T07:10:23;16.80;;;11.25;;
58354;SDS011;44160;49.080;19.302;2023-09-30T07:12:52;18.67;;;10.75;;
58354;SDS011;44160;49.080;19.302;2023-09-30T07:15:18;15.93;;;10.82;;
58354;SDS011;44160;49.080;19.302;2023-09-30T07:17:44;15.40;;;10.90;;
58354;SDS011;44160;49.080;19.302;2023-09-30T07:20:12;16.95;;;9.57;;
58354;SDS011;44160;49.080;19.302;2023-09-30T07:22:38;17.05;;;10.65;;
58354;SDS011;44160;49.080;19.302;2023-09-30T07:25:04;19.67;;;11.32;;
58354;SDS011;44160;49.080;19.302;2023-09-30T07:27:30;16.23;;;10.52;;
58354;SDS011;44160;49.080;19.302;2023-09-30T07:29:56;25.60;;;10.25;;
58354;SDS011;44160;49.080;19.302;2023-09-30T07:32:22;16.48;;;10.52;;
58354;SDS011;44160;49.080;19.302;2023-09-30T07:34:49;18.33;;;11.20;;
58354;SDS011;44160;49.080;19.302;2023-09-30T07:37:15;19.52;;;11.48;;
58354;SDS011;44160;49.080;19.302;2023-09-30T07:39:43;14.00;;;10.93;;
58354;SDS011;44160;49.080;19.302;2023-09-30T07:42:09;19.55;;;10.85;;
58354;SDS011;44160;49.080;19.302;2023-09-30T07:44:35;14.95;;;10.60;;
58354;SDS011;44160;49.080;19.302;2023-09-30T07:47:02;15.32;;;10.80;;
58354;SDS011;44160;49.080;19.302;2023-09-30T07:49:29;14.05;;;10.90;;
58354;SDS011;44160;49.080;19.302;2023-09-30T07:51:55;20.10;;;10.90;;
58354;SDS011;44160;49.080;19.302;2023-09-30T07:54:21;15.98;;;11.13;;
58354;SDS011;44160;49.080;19.302;2023-09-30T07:56:47;15.88;;;10.20;;
58354;SDS011;44160;49.080;19.302;2023-09-30T07:59:14;16.88;;;10.60;;
58354;SDS011;44160;49.080;19.302;2023-09-30T08:01:41;16.33;;;9.77;;
58354;SDS011;44160;49.080;19.302;2023-09-30T08:04:07;16.90;;;10.52;;
58354;SDS011;44160;49.080;19.302;2023-09-30T08:06:33;13.57;;;9.27;;
58354;SDS011;44160;49.080;19.302;2023-09-30T08:08:59;13.57;;;8.98;;
58354;SDS011;44160;49.080;19.302;2023-09-30T08:11:25;10.25;;;8.43;;
58354;SDS011;44160;49.080;19.302;2023-09-30T08:13:56;12.85;;;9.13;;
58354;SDS011;44160;49.080;19.302;2023-09-30T08:16:24;12.45;;;8.25;;
58354;SDS011;44160;49.080;19.302;2023-09-30T08:18:50;12.93;;;8.13;;
58354;SDS011;44160;49.080;19.302;2023-09-30T08:21:16;13.82;;;8.55;;
58354;SDS011;44160;49.080;19.302;2023-09-30T08:23:42;12.10;;;8.38;;
58354;SDS011;44160;49.080;19.302;2023-09-30T08:26:10;12.88;;;8.93;;
58354;SDS011;44160;49.080;19.302;2023-09-30T08:28:37;11.55;;;8.45;;
58354;SDS011;44160;49.080;19.302;2023-09-30T08:31:03;13.48;;;9.10;;
58354;SDS011;44160;49.080;19.302;2023-09-30T08:33:30;14.32;;;8.50;;
58354;SDS011;44160;49.080;19.302;2023-09-30T08:35:57;18.88;;;8.38;;
58354;SDS011;44160;49.080;19.302;2023-09-30T08:38:26;11.02;;;7.88;;
58354;SDS011;44160;49.080;19.302;2023-09-30T08:40:52;10.57;;;8.30;;
58354;SDS011;44160;49.080;19.302;2023-09-30T08:43:19;9.55;;;8.20;;
58354;SDS011;44160;49.080;19.302;2023-09-30T08:45:48;15.60;;;8.30;;
58354;SDS011;44160;49.080;19.302;2023-09-30T08:48:19;12.77;;;7.80;;
58354;SDS011;44160;49.080;19.302;2023-09-30T08:50:46;10.85;;;7.85;;
58354;SDS011;44160;49.080;19.302;2023-09-30T08:53:14;13.75;;;7.50;;
58354;SDS011;44160;49.080;19.302;2023-09-30T08:55:43;9.20;;;7.07;;
58354;SDS011;44160;49.080;19.302;2023-09-30T08:58:10;8.90;;;6.10;;
58354;SDS011;44160;49.080;19.302;2023-09-30T09:00:36;9.25;;;7.00;;
58354;SDS011;44160;49.080;19.302;2023-09-30T09:03:03;13.00;;;7.57;;
58354;SDS011;44160;49.080;19.302;2023-09-30T09:05:32;10.90;;;7.53;;
58354;SDS011;44160;49.080;19.302;2023-09-30T09:07:58;8.93;;;6.80;;
58354;SDS011;44160;49.080;19.302;2023-09-30T09:10:24;10.88;;;7.63;;
58354;SDS011;44160;49.080;19.302;2023-09-30T09:12:57;13.93;;;7.97;;
58354;SDS011;44160;49.080;19.302;2023-09-30T09:15:24;11.55;;;7.65;;
58354;SDS011;44160;49.080;19.302;2023-09-30T09:17:50;13.57;;;7.20;;
58354;SDS011;44160;49.080;19.302;2023-09-30T09:20:18;15.95;;;7.45;;
58354;SDS011;44160;49.080;19.302;2023-09-30T09:22:49;10.27;;;7.22;;
58354;SDS011;44160;49.080;19.302;2023-09-30T09:25:20;11.85;;;7.82;;
58354;SDS011;44160;49.080;19.302;2023-09-30T09:27:50;12.35;;;7.43;;
58354;SDS011;44160;49.080;19.302;2023-09-30T09:30:17;13.40;;;7.82;;
58354;SDS011;44160;49.080;19.302;2023-09-30T09:32:53;10.23;;;7.68;;
58354;SDS011;44160;49.080;19.302;2023-09-30T09:35:20;11.57;;;8.45;;
58354;SDS011;44160;49.080;19.302;2023-09-30T09:40:45;11.43;;;7.45;;
58354;SDS011;44160;49.080;19.302;2023-09-30T09:43:14;10.07;;;7.55;;
58354;SDS011;44160;49.080;19.302;2023-09-30T09:45:41;10.45;;;7.65;;
58354;SDS011;44160;49.080;19.302;2023-09-30T09:48:08;14.55;;;7.47;;
58354;SDS011;44160;49.080;19.302;2023-09-30T09:50:35;11.07;;;8.35;;
58354;SDS011;44160;49.080;19.302;2023-09-30T09:53:01;16.77;;;7.90;;
58354;SDS011;44160;49.080;19.302;2023-09-30T09:55:29;13.80;;;7.75;;
58354;SDS011;44160;49.080;19.302;2023-09-30T09:57:55;12.18;;;7.90;;
58354;SDS011;44160;49.080;19.302;2023-09-30T10:00:26;13.25;;;8.05;;
58354;SDS011;44160;49.080;19.302;2023-09-30T10:02:54;12.90;;;7.80;;
58354;SDS011;44160;49.080;19.302;2023-09-30T10:05:22;9.40;;;7.60;;
58354;SDS011;44160;49.080;19.302;2023-09-30T10:07:52;10.75;;;7.57;;
58354;SDS011;44160;49.080;19.302;2023-09-30T10:10:20;13.65;;;8.50;;
58354;SDS011;44160;49.080;19.302;2023-09-30T10:12:46;13.48;;;8.75;;
58354;SDS011;44160;49.080;19.302;2023-09-30T10:15:46;11.40;;;8.02;;
58354;SDS011;44160;49.080;19.302;2023-09-30T10:18:09;11.00;;;8.73;;
58354;SDS011;44160;49.080;19.302;2023-09-30T10:20:37;11.20;;;8.43;;
58354;SDS011;44160;49.080;19.302;2023-09-30T10:25:45;18.55;;;8.65;;
58354;SDS011;44160;49.080;19.302;2023-09-30T10:31:08;13.68;;;9.07;;
58354;SDS011;44160;49.080;19.302;2023-09-30T10:38:57;13.90;;;10.32;;
58354;SDS011;44160;49.080;19.302;2023-09-30T10:46:55;15.07;;;8.55;;
58354;SDS011;44160;49.080;19.302;2023-09-30T10:51:53;11.85;;;8.27;;
58354;SDS011;44160;49.080;19.302;2023-09-30T10:54:23;12.25;;;8.60;;
58354;SDS011;44160;49.080;19.302;2023-09-30T10:56:49;10.57;;;7.28;;
58354;SDS011;44160;49.080;19.302;2023-09-30T10:59:18;14.73;;;8.82;;
58354;SDS011;44160;49.080;19.302;2023-09-30T11:01:44;10.20;;;7.70;;
58354;SDS011;44160;49.080;19.302;2023-09-30T11:04:11;8.48;;;7.45;;
58354;SDS011;44160;49.080;19.302;2023-09-30T11:06:41;11.70;;;7.82;;
58354;SDS011;44160;49.080;19.302;2023-09-30T11:09:07;13.05;;;7.07;;
58354;SDS011;44160;49.080;19.302;2023-09-30T11:11:48;12.63;;;6.55;;
58354;SDS011;44160;49.080;19.302;2023-09-30T11:16:43;11.82;;;7.43;;
58354;SDS011;44160;49.080;19.302;2023-09-30T11:19:09;11.77;;;7.60;;
58354;SDS011;44160;49.080;19.302;2023-09-30T11:21:36;14.20;;;7.10;;
58354;SDS011;44160;49.080;19.302;2023-09-30T11:24:02;9.10;;;6.85;;
58354;SDS011;44160;49.080;19.302;2023-09-30T11:26:29;10.35;;;6.40;;
58354;SDS011;44160;49.080;19.302;2023-09-30T11:29:05;8.00;;;6.25;;
58354;SDS011;44160;49.080;19.302;2023-09-30T11:31:31;7.43;;;6.20;;
58354;SDS011;44160;49.080;19.302;2023-09-30T11:33:59;9.77;;;6.43;;
58354;SDS011;44160;49.080;19.302;2023-09-30T11:36:29;14.43;;;7.03;;
58354;SDS011;44160;49.080;19.302;2023-09-30T11:38:56;11.18;;;7.28;;
58354;SDS011;44160;49.080;19.302;2023-09-30T11:41:22;9.85;;;6.82;;
58354;SDS011;44160;49.080;19.302;2023-09-30T11:43:58;12.88;;;8.02;;
58354;SDS011;44160;49.080;19.302;2023-09-30T11:46:29;10.48;;;7.63;;
58354;SDS011;44160;49.080;19.302;2023-09-30T11:49:10;9.73;;;7.20;;
58354;SDS011;44160;49.080;19.302;2023-09-30T11:51:43;10.75;;;7.50;;
58354;SDS011;44160;49.080;19.302;2023-09-30T11:54:11;11.23;;;8.18;;
58354;SDS011;44160;49.080;19.302;2023-09-30T11:56:37;8.38;;;7.20;;
58354;SDS011;44160;49.080;19.302;2023-09-30T11:59:03;14.25;;;7.22;;
58354;SDS011;44160;49.080;19.302;2023-09-30T12:01:29;12.88;;;6.32;;
58354;SDS011;44160;49.080;19.302;2023-09-30T12:03:57;11.68;;;6.55;;
58354;SDS011;44160;49.080;19.302;2023-09-30T12:06:23;10.88;;;6.43;;
58354;SDS011;44160;49.080;19.302;2023-09-30T12:08:49;12.48;;;7.63;;
58354;SDS011;44160;49.080;19.302;2023-09-30T12:11:16;7.90;;;6.38;;
58354;SDS011;44160;49.080;19.302;2023-09-30T12:13:42;11.90;;;6.45;;
58354;SDS011;44160;49.080;19.302;2023-09-30T12:16:09;10.88;;;7.25;;
58354;SDS011;44160;49.080;19.302;2023-09-30T12:18:37;9.05;;;7.40;;
58354;SDS011;44160;49.080;19.302;2023-09-30T12:21:03;9.73;;;6.80;;
58354;SDS011;44160;49.080;19.302;2023-09-30T12:23:32;13.48;;;6.85;;
58354;SDS011;44160;49.080;19.302;2023-09-30T12:25:58;10.88;;;7.32;;
58354;SDS011;44160;49.080;19.302;2023-09-30T12:28:24;9.25;;;7.07;;
58354;SDS011;44160;49.080;19.302;2023-09-30T12:30:51;12.10;;;7.80;;
58354;SDS011;44160;49.080;19.302;2023-09-30T12:33:17;9.35;;;6.55;;
58354;SDS011;44160;49.080;19.302;2023-09-30T12:35:43;8.30;;;6.47;;
58354;SDS011;44160;49.080;19.302;2023-09-30T12:38:09;6.95;;;5.97;;
58354;SDS011;44160;49.080;19.302;2023-09-30T12:40:35;10.65;;;7.10;;
58354;SDS011;44160;49.080;19.302;2023-09-30T12:43:01;9.68;;;7.93;;
58354;SDS011;44160;49.080;19.302;2023-09-30T12:45:28;9.18;;;6.82;;
58354;SDS011;44160;49.080;19.302;2023-09-30T12:47:57;10.30;;;7.38;;
58354;SDS011;44160;49.080;19.302;2023-09-30T12:50:23;8.75;;;7.20;;
58354;SDS011;44160;49.080;19.302;2023-09-30T12:52:49;10.27;;;7.53;;
58354;SDS011;44160;49.080;19.302;2023-09-30T12:55:15;13.23;;;8.32;;
58354;SDS011;44160;49.080;19.302;2023-09-30T12:57:41;12.10;;;7.22;;
58354;SDS011;44160;49.080;19.302;2023-09-30T13:00:07;9.15;;;7.05;;
58354;SDS011;44160;49.080;19.302;2023-09-30T13:02:34;9.73;;;6.90;;
58354;SDS011;44160;49.080;19.302;2023-09-30T13:05:00;12.55;;;8.05;;
58354;SDS011;44160;49.080;19.302;2023-09-30T13:07:27;8.85;;;6.93;;
58354;SDS011;44160;49.080;19.302;2023-09-30T13:09:53;11.30;;;7.25;;
58354;SDS011;44160;49.080;19.302;2023-09-30T13:12:19;12.77;;;7.93;;
58354;SDS011;44160;49.080;19.302;2023-09-30T13:14:45;10.45;;;8.25;;
58354;SDS011;44160;49.080;19.302;2023-09-30T13:17:11;12.05;;;8.65;;
58354;SDS011;44160;49.080;19.302;2023-09-30T13:19:42;10.65;;;7.80;;
58354;SDS011;44160;49.080;19.302;2023-09-30T13:22:11;11.30;;;7.88;;
58354;SDS011;44160;49.080;19.302;2023-09-30T13:24:37;12.88;;;8.18;;
58354;SDS011;44160;49.080;19.302;2023-09-30T13:27:04;9.52;;;7.53;;
58354;SDS011;44160;49.080;19.302;2023-09-30T13:29:31;10.13;;;7.28;;
58354;SDS011;44160;49.080;19.302;2023-09-30T13:31:57;9.50;;;7.00;;
58354;SDS011;44160;49.080;19.302;2023-09-30T13:34:23;15.40;;;8.80;;
58354;SDS011;44160;49.080;19.302;2023-09-30T13:36:52;14.98;;;8.10;;
58354;SDS011;44160;49.080;19.302;2023-09-30T13:39:18;8.45;;;6.57;;
58354;SDS011;44160;49.080;19.302;2023-09-30T13:41:46;9.65;;;7.13;;
58354;SDS011;44160;49.080;19.302;2023-09-30T13:44:12;11.02;;;7.75;;
58354;SDS011;44160;49.080;19.302;2023-09-30T13:46:38;12.75;;;8.07;;
58354;SDS011;44160;49.080;19.302;2023-09-30T13:49:04;9.88;;;7.90;;
58354;SDS011;44160;49.080;19.302;2023-09-30T13:51:30;12.10;;;7.47;;
58354;SDS011;44160;49.080;19.302;2023-09-30T13:53:56;11.52;;;7.75;;
58354;SDS011;44160;49.080;19.302;2023-09-30T13:56:22;9.68;;;7.88;;
58354;SDS011;44160;49.080;19.302;2023-09-30T13:58:48;10.95;;;7.78;;
58354;SDS011;44160;49.080;19.302;2023-09-30T14:01:15;13.55;;;8.00;;
58354;SDS011;44160;49.080;19.302;2023-09-30T14:03:41;16.38;;;8.05;;
58354;SDS011;44160;49.080;19.302;2023-09-30T14:06:11;9.95;;;7.70;;
58354;SDS011;44160;49.080;19.302;2023-09-30T14:08:37;13.25;;;8.13;;
58354;SDS011;44160;49.080;19.302;2023-09-30T14:11:03;13.00;;;8.55;;
58354;SDS011;44160;49.080;19.302;2023-09-30T14:13:30;9.85;;;7.65;;
58354;SDS011;44160;49.080;19.302;2023-09-30T14:15:56;15.48;;;7.72;;
58354;SDS011;44160;49.080;19.302;2023-09-30T14:18:22;8.70;;;7.05;;
58354;SDS011;44160;49.080;19.302;2023-09-30T14:20:48;13.63;;;7.85;;
58354;SDS011;44160;49.080;19.302;2023-09-30T14:23:15;10.02;;;7.95;;
58354;SDS011;44160;49.080;19.302;2023-09-30T14:25:41;10.60;;;8.32;;
58354;SDS011;44160;49.080;19.302;2023-09-30T14:28:07;14.88;;;8.77;;
58354;SDS011;44160;49.080;19.302;2023-09-30T14:30:33;12.60;;;7.68;;
58354;SDS011;44160;49.080;19.302;2023-09-30T14:32:59;11.10;;;8.02;;
58354;SDS011;44160;49.080;19.302;2023-09-30T14:35:25;11.25;;;8.13;;
58354;SDS011;44160;49.080;19.302;2023-09-30T14:37:51;9.75;;;7.97;;
58354;SDS011;44160;49.080;19.302;2023-09-30T14:40:19;11.30;;;7.68;;
58354;SDS011;44160;49.080;19.302;2023-09-30T14:42:45;8.93;;;6.40;;
58354;SDS011;44160;49.080;19.302;2023-09-30T14:45:11;8.48;;;6.18;;
58354;SDS011;44160;49.080;19.302;2023-09-30T14:47:37;11.98;;;7.25;;
58354;SDS011;44160;49.080;19.302;2023-09-30T14:50:07;6.88;;;5.95;;